Time;durP1;ratioP1;P1;durP2;ratioP2;P2;SDS_P1;SDS_P2;PMS_P1;PMS_P2;Temp;Humidity;BMP_temperature;BMP_pressure;BME280_temperature;BME280_humidity;BME280_pressure;Samples;Min_cycle;Max_cycle;Signal;HPM_P1;HPM_P2
2022/07/30 00:00:47;;;;;;;8.43;7.57;;;;;;;-146.72;100.00;64895.28;5087382;28;20474;-75
2022/07/30 00:03:14;;;;;;;8.53;7.87;;;;;;;-146.72;100.00;64895.28;5077375;28;20437;-75
2022/07/30 00:05:41;;;;;;;6.93;6.43;;;;;;;-146.72;100.00;64895.28;5074410;28;20455;-74
2022/07/30 00:08:07;;;;;;;8.60;7.90;;;;;;;-146.72;100.00;64895.28;5080446;28;20437;-74
2022/07/30 00:10:34;;;;;;;9.03;6.90;;;;;;;-146.72;100.00;64895.28;5070838;28;20478;-74
2022/07/30 00:13:01;;;;;;;7.07;6.57;;;;;;;-146.72;100.00;64895.28;5083522;28;20452;-75
2022/07/30 00:15:27;;;;;;;6.57;6.17;;;;;;;-146.72;100.00;64895.28;5078286;28;20480;-75
2022/07/30 00:17:54;;;;;;;6.53;6.03;;;;;;;-146.72;100.00;64895.28;5090607;28;20439;-74
2022/07/30 00:20:21;;;;;;;7.23;6.73;;;;;;;-146.72;100.00;64895.28;5094774;28;20524;-74
2022/07/30 00:22:53;;;;;;;7.43;6.83;;;;;;;-146.72;100.00;64895.28;5062896;28;20432;-74
2022/07/30 00:25:20;;;;;;;10.27;9.27;;;;;;;-146.72;100.00;64895.28;5065289;28;20432;-75
2022/07/30 00:27:46;;;;;;;8.90;7.20;;;;;;;-146.72;100.00;64895.28;5053147;28;20426;-75
2022/07/30 00:30:13;;;;;;;9.27;8.47;;;;;;;-146.72;100.00;64895.28;5053129;28;20507;-75
2022/07/30 00:32:42;;;;;;;8.00;7.20;;;;;;;-146.72;100.00;64895.28;5095430;28;20874;-75
2022/07/30 00:35:09;;;;;;;8.33;7.17;;;;;;;-146.72;100.00;64895.28;5073130;28;20433;-74
2022/07/30 00:37:36;;;;;;;8.97;8.30;;;;;;;-146.72;100.00;64895.28;5069710;28;20432;-74
2022/07/30 00:40:05;;;;;;;8.77;8.07;;;;;;;-146.72;100.00;64895.28;5063447;28;20492;-74
2022/07/30 00:42:42;;;;;;;9.23;8.33;;;;;;;-146.72;100.00;64895.28;5055739;28;20794;-74
2022/07/30 00:45:10;;;;;;;9.87;9.00;;;;;;;-146.72;100.00;64895.28;5074127;28;20445;-74
2022/07/30 00:47:37;;;;;;;8.90;8.10;;;;;;;-146.72;100.00;64895.28;5072816;28;20452;-74
2022/07/30 00:50:06;;;;;;;7.37;6.67;;;;;;;-146.72;100.00;64895.28;5074035;28;21009;-74
2022/07/30 00:52:34;;;;;;;8.67;7.87;;;;;;;-146.72;100.00;64895.28;5072547;28;20557;-74
2022/07/30 00:55:00;;;;;;;9.70;8.80;;;;;;;-146.72;100.00;64895.28;5074064;28;20451;-74
2022/07/30 00:57:27;;;;;;;8.93;8.20;;;;;;;-146.72;100.00;64895.28;5078050;28;20530;-74
2022/07/30 00:59:54;;;;;;;8.70;7.53;;;;;;;-146.72;100.00;64895.28;5080445;28;20492;-74
2022/07/30 01:02:21;;;;;;;7.30;6.70;;;;;;;-146.72;100.00;64895.28;5072260;28;20540;-74
2022/07/30 01:04:48;;;;;;;8.30;7.70;;;;;;;-146.72;100.00;64895.28;5084990;28;20443;-74
2022/07/30 01:07:18;;;;;;;9.20;8.37;;;;;;;-146.72;100.00;64895.28;5091779;28;20444;-74
2022/07/30 01:09:44;;;;;;;8.43;7.73;;;;;;;-146.72;100.00;64895.28;5078448;28;20448;-74
2022/07/30 01:12:18;;;;;;;9.33;8.37;;;;;;;-146.72;100.00;64895.28;5079646;28;20448;-74
2022/07/30 01:14:45;;;;;;;8.90;8.00;;;;;;;-146.72;100.00;64895.28;5093013;28;20493;-74
2022/07/30 01:17:12;;;;;;;8.23;7.43;;;;;;;-146.72;100.00;64895.28;5093859;28;20999;-74
2022/07/30 01:19:47;;;;;;;8.47;7.40;;;;;;;-146.72;100.00;64895.28;5077146;28;20508;-74
2022/07/30 01:22:42;;;;;;;8.40;7.70;;;;;;;-146.72;100.00;64895.28;5072075;28;20435;-74
2022/07/30 01:25:30;;;;;;;9.27;8.53;;;;;;;-146.72;100.00;64895.28;5069242;28;20548;-74
2022/07/30 01:28:12;;;;;;;7.30;6.70;;;;;;;-146.72;100.00;64895.28;5055267;28;20482;-74
2022/07/30 01:30:45;;;;;;;7.17;6.57;;;;;;;-146.72;100.00;64895.28;5072162;28;20456;-74
2022/07/30 01:33:17;;;;;;;8.37;7.70;;;;;;;-146.72;100.00;64895.28;5071885;28;20433;-74
2022/07/30 01:35:47;;;;;;;8.77;8.13;;;;;;;-146.72;100.00;64895.28;5077082;28;20444;-74
2022/07/30 01:38:18;;;;;;;10.20;9.20;;;;;;;-146.72;100.00;64895.28;5073324;28;20463;-74
2022/07/30 01:40:46;;;;;;;8.33;7.63;;;;;;;-146.72;100.00;64895.28;5053743;28;20534;-74
2022/07/30 01:43:14;;;;;;;8.57;7.77;;;;;;;-146.72;100.00;64895.28;5071812;28;20425;-74
2022/07/30 01:45:42;;;;;;;9.37;6.90;;;;;;;-146.72;100.00;64895.28;5071570;28;20441;-74
2022/07/30 01:48:12;;;;;;;13.37;9.07;;;;;;;-146.72;100.00;64895.28;5072022;28;20859;-74
2022/07/30 01:50:42;;;;;;;17.63;9.50;;;;;;;-146.72;100.00;64895.28;5088311;28;20556;-74
2022/07/30 01:53:18;;;;;;;10.73;9.60;;;;;;;-146.72;100.00;64895.28;5091758;28;20470;-74
2022/07/30 01:55:46;;;;;;;12.90;8.60;;;;;;;-146.72;100.00;64895.28;5073562;28;20440;-74
2022/07/30 01:58:17;;;;;;;10.37;9.33;;;;;;;-146.72;100.00;64895.28;5055045;28;20441;-74
2022/07/30 02:00:47;;;;;;;9.40;8.60;;;;;;;-146.72;100.00;64895.28;5055016;28;20498;-75
2022/07/30 02:03:14;;;;;;;11.87;9.13;;;;;;;-146.72;100.00;64895.28;5071504;28;20987;-75
2022/07/30 02:05:52;;;;;;;10.37;9.33;;;;;;;-146.72;100.00;64895.28;5068074;28;20444;-75
2022/07/30 02:08:41;;;;;;;10.07;9.07;;;;;;;-146.72;100.00;64895.28;5065921;28;20486;-75
2022/07/30 02:11:11;;;;;;;10.00;9.00;;;;;;;-146.72;100.00;64895.28;5060116;28;20535;-75
2022/07/30 02:13:53;;;;;;;9.10;8.37;;;;;;;-146.72;100.00;64895.28;5064790;28;20429;-75
2022/07/30 02:16:30;;;;;;;9.03;8.43;;;;;;;-146.72;100.00;64895.28;5064982;28;20446;-75
2022/07/30 02:19:11;;;;;;;12.77;11.00;;;;;;;-146.72;100.00;64895.28;5050586;28;20983;-75
2022/07/30 02:21:44;;;;;;;15.57;14.10;;;;;;;-146.72;100.00;64895.28;5072906;28;20428;-74
2022/07/30 02:24:20;;;;;;;16.93;15.20;;;;;;;-146.72;100.00;64895.28;5075043;28;20870;-74
2022/07/30 02:26:50;;;;;;;24.00;15.27;;;;;;;-146.72;100.00;64895.28;5060340;28;20421;-74
2022/07/30 02:29:19;;;;;;;18.93;17.10;;;;;;;-146.72;100.00;64895.28;5051697;28;20492;-74
2022/07/30 02:31:47;;;;;;;18.37;16.57;;;;;;;-146.72;100.00;64895.28;5062697;28;20449;-74
2022/07/30 02:34:17;;;;;;;18.13;16.37;;;;;;;-146.72;100.00;64895.28;5063074;28;20812;-74
2022/07/30 02:36:45;;;;;;;18.50;16.60;;;;;;;-146.72;100.00;64895.28;5070698;28;20802;-74
2022/07/30 02:39:15;;;;;;;23.73;19.10;;;;;;;-146.72;100.00;64895.28;5072849;28;20464;-74
2022/07/30 02:41:43;;;;;;;18.67;16.77;;;;;;;-146.72;100.00;64895.28;5073946;28;20459;-74
2022/07/30 02:44:18;;;;;;;18.67;16.87;;;;;;;-146.72;100.00;64895.28;5077078;28;20458;-74
2022/07/30 02:46:47;;;;;;;19.57;17.67;;;;;;;-146.72;100.00;64895.28;5079813;28;20797;-74
2022/07/30 02:49:35;;;;;;;17.87;16.17;;;;;;;-146.72;100.00;64895.28;5064621;28;21035;-74
2022/07/30 02:52:04;;;;;;;18.70;16.97;;;;;;;-146.72;100.00;64895.28;5080376;28;20562;-74
2022/07/30 02:54:31;;;;;;;17.93;16.17;;;;;;;-146.72;100.00;64895.28;5093569;28;20449;-74
2022/07/30 02:57:00;;;;;;;19.90;17.80;;;;;;;-146.72;100.00;64895.28;5077013;28;20441;-74
2022/07/30 02:59:30;;;;;;;17.17;15.70;;;;;;;-146.72;100.00;64895.28;5072634;28;20461;-74
2022/07/30 03:01:59;;;;;;;15.50;14.10;;;;;;;-146.72;100.00;64895.28;5072767;28;21109;-74
2022/07/30 03:04:28;;;;;;;17.90;16.30;;;;;;;-146.72;100.00;64895.28;5083466;28;20793;-74
2022/07/30 03:06:55;;;;;;;18.07;15.33;;;;;;;-146.72;100.00;64895.28;5090452;28;20432;-74
2022/07/30 03:09:22;;;;;;;15.53;14.23;;;;;;;-146.72;100.00;64895.28;5079824;28;20899;-74
2022/07/30 03:11:52;;;;;;;16.43;14.90;;;;;;;-146.72;100.00;64895.28;5069862;28;20949;-75
2022/07/30 03:14:19;;;;;;;15.43;14.03;;;;;;;-146.72;100.00;64895.28;5058965;28;20437;-75
2022/07/30 03:16:51;;;;;;;15.13;13.73;;;;;;;-146.72;100.00;64895.28;5087678;28;21016;-75
2022/07/30 03:19:21;;;;;;;14.67;13.40;;;;;;;-146.72;100.00;64895.28;5078075;28;20484;-75
2022/07/30 03:21:50;;;;;;;14.53;13.03;;;;;;;-146.72;100.00;64895.28;5059375;28;20998;-75
2022/07/30 03:24:22;;;;;;;15.43;13.83;;;;;;;-146.72;100.00;64895.28;5073425;28;20463;-75
2022/07/30 03:26:51;;;;;;;13.80;12.70;;;;;;;-146.72;100.00;64895.28;5079292;28;20430;-75
2022/07/30 03:29:19;;;;;;;12.50;11.33;;;;;;;-146.72;100.00;64895.28;5063827;28;20460;-75
2022/07/30 03:31:48;;;;;;;14.13;12.83;;;;;;;-146.72;100.00;64895.28;5069247;28;20432;-75
2022/07/30 03:34:16;;;;;;;14.17;12.87;;;;;;;-146.72;100.00;64895.28;5084780;28;20447;-75
2022/07/30 03:36:43;;;;;;;12.80;11.67;;;;;;;-146.72;100.00;64895.28;5090165;28;20950;-75
2022/07/30 03:39:11;;;;;;;14.13;12.90;;;;;;;-146.72;100.00;64895.28;5057815;28;20840;-75
2022/07/30 03:41:39;;;;;;;13.13;11.97;;;;;;;-146.72;100.00;64895.28;5069961;28;20511;-75
2022/07/30 03:44:10;;;;;;;13.67;12.50;;;;;;;-146.72;100.00;64895.28;5060265;28;20447;-75
2022/07/30 03:46:39;;;;;;;12.73;11.67;;;;;;;-146.72;100.00;64895.28;5073153;28;20439;-75
2022/07/30 03:49:08;;;;;;;12.70;11.60;;;;;;;-146.72;100.00;64895.28;5065465;28;20916;-75
2022/07/30 03:51:40;;;;;;;14.03;12.83;;;;;;;-146.72;100.00;64895.28;5060966;28;20528;-75
2022/07/30 03:54:10;;;;;;;13.80;12.57;;;;;;;-146.72;100.00;64895.28;5056047;28;20967;-75
2022/07/30 03:56:39;;;;;;;12.57;11.57;;;;;;;-146.72;100.00;64895.28;5070844;28;20474;-75
2022/07/30 03:59:13;;;;;;;15.57;14.20;;;;;;;-146.72;100.00;64895.28;5056211;28;20462;-75
2022/07/30 04:01:40;;;;;;;13.17;12.07;;;;;;;-146.72;100.00;64895.28;5052650;28;20468;-74
2022/07/30 04:04:31;;;;;;;13.40;12.07;;;;;;;-146.72;100.00;64895.28;5080152;28;20474;-75
2022/07/30 04:06:58;;;;;;;13.70;12.50;;;;;;;-146.72;100.00;64895.28;5072957;28;20462;-75
2022/07/30 04:09:25;;;;;;;12.57;11.47;;;;;;;-146.72;100.00;64895.28;5089583;28;21002;-75
2022/07/30 04:11:52;;;;;;;12.50;11.40;;;;;;;-146.72;100.00;64895.28;5072085;28;20481;-75
2022/07/30 04:14:23;;;;;;;15.20;13.70;;;;;;;-146.72;100.00;64895.28;5053453;28;20440;-75
2022/07/30 04:17:03;;;;;;;13.20;12.10;;;;;;;-146.72;100.00;64895.28;5049339;28;20855;-75
2022/07/30 04:19:36;;;;;;;13.33;12.13;;;;;;;-146.72;100.00;64895.28;5069304;28;20459;-75
2022/07/30 04:22:04;;;;;;;13.57;12.13;;;;;;;-146.72;100.00;64895.28;5076843;28;20463;-75
2022/07/30 04:24:34;;;;;;;14.30;13.00;;;;;;;-146.72;100.00;64895.28;5089460;28;20481;-75
2022/07/30 04:27:02;;;;;;;13.60;12.40;;;;;;;-146.72;100.00;64895.28;5071525;28;20441;-75
2022/07/30 04:29:31;;;;;;;17.60;15.80;;;;;;;-146.72;100.00;64895.28;5068945;28;20472;-75
2022/07/30 04:31:58;;;;;;;17.27;15.63;;;;;;;-146.72;100.00;64895.28;5076296;28;20521;-75
2022/07/30 04:34:50;;;;;;;18.37;16.33;;;;;;;-146.72;100.00;64895.28;5065812;28;20448;-75
2022/07/30 04:37:27;;;;;;;22.80;17.50;;;;;;;-146.72;100.00;64895.28;5056896;28;20499;-75
2022/07/30 04:39:56;;;;;;;18.67;16.80;;;;;;;-146.72;100.00;64895.28;5056019;28;20457;-75
2022/07/30 04:42:27;;;;;;;19.00;17.07;;;;;;;-146.72;100.00;64895.28;5057189;28;20456;-75
2022/07/30 04:45:02;;;;;;;19.63;17.60;;;;;;;-146.72;100.00;64895.28;5078563;28;20448;-75
2022/07/30 04:47:35;;;;;;;19.73;16.77;;;;;;;-146.72;100.00;64895.28;5078297;28;20531;-75
2022/07/30 04:50:39;;;;;;;19.13;17.43;;;;;;;-146.72;100.00;64895.28;5057629;28;20449;-75
2022/07/30 04:53:10;;;;;;;18.57;16.77;;;;;;;-146.72;100.00;64895.28;5079149;28;20441;-75
2022/07/30 04:55:44;;;;;;;17.27;15.57;;;;;;;-146.72;100.00;64895.28;5058981;28;20436;-75
2022/07/30 04:58:13;;;;;;;17.93;16.17;;;;;;;-146.72;100.00;64895.28;5081009;28;20436;-75
2022/07/30 05:00:41;;;;;;;17.97;16.17;;;;;;;-146.72;100.00;64895.28;5053387;28;20469;-75
2022/07/30 05:03:14;;;;;;;17.57;14.93;;;;;;;-146.72;100.00;64895.28;5078446;28;20916;-75
2022/07/30 05:05:46;;;;;;;17.80;16.00;;;;;;;-146.72;100.00;64895.28;5092619;28;20451;-75
2022/07/30 05:08:14;;;;;;;19.30;17.30;;;;;;;-146.72;100.00;64895.28;5074990;28;20468;-75
2022/07/30 05:10:42;;;;;;;18.87;16.97;;;;;;;-146.72;100.00;64895.28;5064549;28;20555;-75
2022/07/30 05:13:14;;;;;;;17.30;15.70;;;;;;;-146.72;100.00;64895.28;5067047;28;20458;-75
2022/07/30 05:15:43;;;;;;;16.70;15.10;;;;;;;-146.72;100.00;64895.28;5072143;28;20537;-75
2022/07/30 05:18:11;;;;;;;16.63;14.67;;;;;;;-146.72;100.00;64895.28;5074836;28;20451;-75
2022/07/30 05:20:41;;;;;;;17.30;15.70;;;;;;;-146.72;100.00;64895.28;5083763;28;20456;-75
2022/07/30 05:23:19;;;;;;;18.03;15.43;;;;;;;-146.72;100.00;64895.28;5056904;28;20456;-75
2022/07/30 05:26:03;;;;;;;17.57;15.87;;;;;;;-146.72;100.00;64895.28;5072238;28;20408;-75
2022/07/30 05:28:36;;;;;;;16.70;15.13;;;;;;;-146.72;100.00;64895.28;5080597;28;20458;-75
2022/07/30 05:31:06;;;;;;;17.47;15.87;;;;;;;-146.72;100.00;64895.28;5092109;28;20472;-75
2022/07/30 05:33:35;;;;;;;15.30;13.73;;;;;;;-146.72;100.00;64895.28;5075565;28;20460;-75
2022/07/30 05:36:12;;;;;;;15.30;13.80;;;;;;;-146.72;100.00;64895.28;5072336;28;20449;-75
2022/07/30 05:38:39;;;;;;;15.93;14.43;;;;;;;-146.72;100.00;64895.28;5074914;28;20935;-75
2022/07/30 05:41:26;;;;;;;13.37;12.07;;;;;;;-146.72;100.00;64895.28;5091758;28;20474;-75
2022/07/30 05:44:24;;;;;;;14.43;13.13;;;;;;;-146.72;100.00;64895.28;5073832;28;20436;-75
2022/07/30 05:46:51;;;;;;;14.40;12.90;;;;;;;-146.72;100.00;64895.28;5076032;28;20448;-75
2022/07/30 05:49:18;;;;;;;14.83;13.43;;;;;;;-146.72;100.00;64895.28;5090053;28;20540;-75
2022/07/30 05:51:45;;;;;;;13.90;12.33;;;;;;;-146.72;100.00;64895.28;5079314;28;20749;-75
2022/07/30 05:54:12;;;;;;;12.93;11.73;;;;;;;-146.72;100.00;64895.28;5084503;28;20894;-75
2022/07/30 05:56:44;;;;;;;14.70;13.30;;;;;;;-146.72;100.00;64895.28;5071724;28;20455;-75
2022/07/30 05:59:34;;;;;;;14.37;12.83;;;;;;;-146.72;100.00;64895.28;5066957;28;20464;-75
2022/07/30 06:02:19;;;;;;;13.37;12.10;;;;;;;-146.72;100.00;64895.28;5077757;28;20603;-75
2022/07/30 06:05:08;;;;;;;15.77;13.20;;;;;;;-146.72;100.00;64895.28;5079651;28;20411;-75
2022/07/30 06:07:35;;;;;;;14.07;12.77;;;;;;;-146.72;100.00;64895.28;5091903;28;20432;-75
2022/07/30 06:10:04;;;;;;;16.20;12.10;;;;;;;-146.72;100.00;64895.28;5075817;28;20467;-75
2022/07/30 06:12:31;;;;;;;14.60;11.90;;;;;;;-146.72;100.00;64895.28;5079263;28;20500;-75
2022/07/30 06:14:58;;;;;;;13.23;11.77;;;;;;;-146.72;100.00;64895.28;5080929;28;20440;-75
2022/07/30 06:17:32;;;;;;;12.80;11.70;;;;;;;-146.72;100.00;64895.28;5071458;28;20509;-75
2022/07/30 06:20:19;;;;;;;11.57;10.17;;;;;;;-146.72;100.00;64895.28;5063595;28;20470;-75
2022/07/30 06:23:06;;;;;;;12.17;11.17;;;;;;;-146.72;100.00;64895.28;5075857;28;20445;-75
2022/07/30 06:25:49;;;;;;;11.13;10.10;;;;;;;-146.72;100.00;64895.28;5076775;28;20865;-75
2022/07/30 06:28:17;;;;;;;11.70;10.60;;;;;;;-146.72;100.00;64895.28;5070482;28;20436;-75
2022/07/30 06:31:13;;;;;;;9.83;9.07;;;;;;;-146.72;100.00;64895.28;5071089;28;20436;-74
2022/07/30 06:33:41;;;;;;;10.73;9.80;;;;;;;-146.72;100.00;64895.28;5073707;28;20535;-74
2022/07/30 06:36:08;;;;;;;10.30;8.23;;;;;;;-146.72;100.00;64895.28;5070056;28;20438;-74
2022/07/30 06:39:00;;;;;;;10.30;9.40;;;;;;;-146.72;100.00;64895.28;5079032;28;20446;-74
2022/07/30 06:41:49;;;;;;;8.80;7.73;;;;;;;-146.72;100.00;64895.28;5063201;28;20489;-74
2022/07/30 06:44:16;;;;;;;10.30;9.40;;;;;;;-146.72;100.00;64895.28;5075092;28;20436;-74
2022/07/30 06:46:46;;;;;;;9.90;9.07;;;;;;;-146.72;100.00;64895.28;5093047;28;20482;-76
2022/07/30 06:49:13;;;;;;;9.10;8.30;;;;;;;-146.72;100.00;64895.28;5060506;28;20457;-76
2022/07/30 06:51:39;;;;;;;9.97;8.97;;;;;;;-146.72;100.00;64895.28;5075718;28;20441;-76
2022/07/30 06:54:06;;;;;;;9.20;8.40;;;;;;;-146.72;100.00;64895.28;5079815;28;20439;-76
2022/07/30 06:56:33;;;;;;;9.80;8.77;;;;;;;-146.72;100.00;64895.28;5097343;28;20522;-76
2022/07/30 06:59:03;;;;;;;9.73;8.37;;;;;;;-146.72;100.00;64895.28;5077066;28;20444;-76
2022/07/30 07:01:41;;;;;;;10.67;9.77;;;;;;;-146.72;100.00;64895.28;5088408;28;20478;-76
2022/07/30 07:04:08;;;;;;;7.53;6.90;;;;;;;-146.72;100.00;64895.28;5078630;28;20557;-76
2022/07/30 07:06:37;;;;;;;8.67;8.07;;;;;;;-146.72;100.00;64895.28;5078359;28;20435;-76
2022/07/30 07:09:05;;;;;;;8.20;7.40;;;;;;;-146.72;100.00;64895.28;5057614;28;20471;-76
2022/07/30 07:11:45;;;;;;;8.27;7.67;;;;;;;-146.72;100.00;64895.28;5056030;28;20452;-75
2022/07/30 07:14:16;;;;;;;8.90;8.10;;;;;;;-146.72;100.00;64895.28;5061373;28;21030;-76
2022/07/30 07:16:43;;;;;;;8.20;7.50;;;;;;;-146.72;100.00;64895.28;5083578;28;20483;-76
2022/07/30 07:19:46;;;;;;;8.83;8.13;;;;;;;-146.72;100.00;64895.28;5071644;28;20460;-76
2022/07/30 07:22:31;;;;;;;8.47;7.77;;;;;;;-146.72;100.00;64895.28;5070625;28;20547;-76
2022/07/30 07:24:58;;;;;;;8.90;8.17;;;;;;;-146.72;100.00;64895.28;5070401;28;20437;-76
2022/07/30 07:27:28;;;;;;;7.93;7.17;;;;;;;-146.72;100.00;64895.28;5074514;28;20442;-76
2022/07/30 07:29:58;;;;;;;8.10;7.50;;;;;;;-146.72;100.00;64895.28;5066870;28;20469;-76
2022/07/30 07:32:33;;;;;;;9.50;8.60;;;;;;;-146.72;100.00;64895.28;5064437;28;20534;-76
2022/07/30 07:35:00;;;;;;;8.20;7.50;;;;;;;-146.72;100.00;64895.28;5076525;28;20536;-76
2022/07/30 07:37:28;;;;;;;8.47;7.77;;;;;;;-146.72;100.00;64895.28;5067228;28;20443;-76
2022/07/30 07:39:55;;;;;;;8.43;7.77;;;;;;;-146.72;100.00;64895.28;5079489;28;20449;-76
2022/07/30 07:42:22;;;;;;;7.87;7.17;;;;;;;-146.72;100.00;64895.28;5078755;28;20506;-76
2022/07/30 07:44:49;;;;;;;8.93;7.93;;;;;;;-146.72;100.00;64895.28;5078724;28;20443;-76
2022/07/30 07:47:17;;;;;;;7.70;7.10;;;;;;;-146.72;100.00;64895.28;5065418;28;20997;-76
2022/07/30 07:49:57;;;;;;;7.07;6.47;;;;;;;-146.72;100.00;64895.28;5066030;28;20578;-76
2022/07/30 07:52:24;;;;;;;8.07;7.20;;;;;;;-146.72;100.00;64895.28;5090165;28;20443;-76
2022/07/30 07:54:51;;;;;;;8.67;7.83;;;;;;;-146.72;100.00;64895.28;5073705;28;20428;-75
2022/07/30 07:57:18;;;;;;;7.53;7.00;;;;;;;-146.72;100.00;64895.28;5072703;28;20440;-76
2022/07/30 07:59:46;;;;;;;6.90;6.20;;;;;;;-146.72;100.00;64895.28;5070029;28;20464;-75
2022/07/30 08:02:22;;;;;;;7.03;6.30;;;;;;;-146.72;100.00;64895.28;5070095;28;20499;-76
2022/07/30 08:05:04;;;;;;;7.33;6.83;;;;;;;-146.72;100.00;64895.28;5069899;28;20513;-76
2022/07/30 08:07:47;;;;;;;6.17;5.67;;;;;;;-146.72;100.00;64895.28;5073587;28;20811;-75
2022/07/30 08:10:32;;;;;;;6.63;6.13;;;;;;;-146.72;100.00;64895.28;5091291;28;20520;-75
2022/07/30 08:13:17;;;;;;;7.37;6.77;;;;;;;-146.72;100.00;64895.28;5090549;28;20529;-76
2022/07/30 08:16:23;;;;;;;7.10;6.57;;;;;;;-146.72;100.00;64895.28;5091334;28;20442;-75
2022/07/30 08:19:13;;;;;;;7.30;6.70;;;;;;;-146.72;100.00;64895.28;5089677;28;20467;-75
2022/07/30 08:21:46;;;;;;;6.37;5.87;;;;;;;-146.72;100.00;64895.28;5078183;28;20471;-75
2022/07/30 08:24:16;;;;;;;6.53;6.00;;;;;;;-146.72;100.00;64895.28;5094031;28;20444;-75
2022/07/30 08:26:42;;;;;;;6.47;5.97;;;;;;;-146.72;100.00;64895.28;5081261;28;20487;-74
2022/07/30 08:29:09;;;;;;;5.60;5.07;;;;;;;-146.72;100.00;64895.28;5066553;28;20464;-75
2022/07/30 08:31:43;;;;;;;5.10;4.60;;;;;;;-146.72;100.00;64895.28;5074617;28;20486;-75
2022/07/30 08:34:09;;;;;;;7.07;5.97;;;;;;;-146.72;100.00;64895.28;5078924;28;20932;-75
2022/07/30 08:36:37;;;;;;;6.00;5.50;;;;;;;-146.72;100.00;64895.28;5057059;28;20446;-75
2022/07/30 08:39:04;;;;;;;5.70;5.30;;;;;;;-146.72;100.00;64895.28;5087934;28;20823;-74
2022/07/30 08:41:31;;;;;;;6.20;5.70;;;;;;;-146.72;100.00;64895.28;5093628;28;20459;-74
2022/07/30 08:44:00;;;;;;;5.30;4.90;;;;;;;-146.72;100.00;64895.28;5095021;28;20459;-74
2022/07/30 08:46:30;;;;;;;5.93;5.43;;;;;;;-146.72;100.00;64895.28;5093582;28;20443;-74
2022/07/30 08:49:04;;;;;;;6.07;5.00;;;;;;;-146.72;100.00;64895.28;5077768;28;20459;-74
2022/07/30 08:51:38;;;;;;;5.87;5.30;;;;;;;-146.72;100.00;64895.28;5093401;28;20801;-75
2022/07/30 08:54:35;;;;;;;6.10;5.50;;;;;;;-146.72;100.00;64895.28;5093785;28;20446;-74
2022/07/30 08:57:02;;;;;;;5.97;5.50;;;;;;;-146.72;100.00;64895.28;5075036;28;20435;-74
2022/07/30 08:59:31;;;;;;;6.03;5.60;;;;;;;-146.72;100.00;64895.28;5073641;28;20873;-74
2022/07/30 09:02:18;;;;;;;7.33;6.73;;;;;;;-146.72;100.00;64895.28;5073797;28;20506;-74
2022/07/30 09:05:03;;;;;;;5.67;5.27;;;;;;;-146.72;100.00;64895.28;5091121;28;20444;-74
2022/07/30 09:07:32;;;;;;;6.87;5.43;;;;;;;-146.72;100.00;64895.28;5082672;28;20447;-74
2022/07/30 09:10:01;;;;;;;7.23;5.50;;;;;;;-146.72;100.00;64895.28;5078246;28;20464;-74
2022/07/30 09:12:41;;;;;;;5.87;5.27;;;;;;;-146.72;100.00;64895.28;5074020;28;20459;-74
2022/07/30 09:15:14;;;;;;;6.07;5.40;;;;;;;-146.72;100.00;64895.28;5073806;28;20952;-74
2022/07/30 09:17:55;;;;;;;6.27;5.80;;;;;;;-146.72;100.00;64895.28;5073960;28;20447;-74
2022/07/30 09:20:26;;;;;;;6.20;5.80;;;;;;;-146.72;100.00;64895.28;5074585;28;20558;-75
2022/07/30 09:22:55;;;;;;;10.20;5.97;;;;;;;-146.72;100.00;64895.28;5072985;28;20490;-75
2022/07/30 09:25:47;;;;;;;6.60;5.93;;;;;;;-146.72;100.00;64895.28;5074885;28;20416;-75
2022/07/30 09:28:33;;;;;;;5.77;5.37;;;;;;;-146.72;100.00;64895.28;5065952;28;21042;-74
2022/07/30 09:31:12;;;;;;;5.27;4.87;;;;;;;-146.72;100.00;64895.28;5085247;28;20434;-74
2022/07/30 09:33:58;;;;;;;4.70;4.33;;;;;;;-146.72;100.00;64895.28;5090118;28;20446;-74
2022/07/30 09:36:43;;;;;;;5.50;5.00;;;;;;;-146.72;100.00;64895.28;5072640;28;20508;-74
2022/07/30 09:39:37;;;;;;;5.43;5.03;;;;;;;-146.72;100.00;64895.28;5085774;28;20494;-74
2022/07/30 09:42:20;;;;;;;4.73;4.43;;;;;;;-146.72;100.00;64895.28;5095951;28;20520;-73
2022/07/30 09:44:50;;;;;;;5.10;4.70;;;;;;;-146.72;100.00;64895.28;5094409;28;20851;-74
2022/07/30 09:47:31;;;;;;;5.50;5.00;;;;;;;-146.72;100.00;64895.28;5070936;28;20444;-74
2022/07/30 09:50:07;;;;;;;5.93;5.33;;;;;;;-146.72;100.00;64895.28;5074954;28;20471;-74
2022/07/30 09:52:34;;;;;;;5.20;4.77;;;;;;;-146.72;100.00;64895.28;5071259;28;20877;-74
2022/07/30 09:55:11;;;;;;;5.47;5.00;;;;;;;-146.72;100.00;64895.28;5066161;28;20436;-74
2022/07/30 09:57:57;;;;;;;6.87;6.10;;;;;;;-146.72;100.00;64895.28;5072862;28;20528;-74
2022/07/30 10:00:28;;;;;;;5.40;4.90;;;;;;;-146.72;100.00;64895.28;5072571;28;20547;-74
2022/07/30 10:03:27;;;;;;;5.40;5.00;;;;;;;-146.72;100.00;64895.28;5047871;28;20488;-75
2022/07/30 10:06:34;;;;;;;5.07;4.77;;;;;;;-146.72;100.00;64895.28;5086243;28;20436;-74
2022/07/30 10:09:34;;;;;;;7.17;5.30;;;;;;;-146.72;100.00;64895.28;5095595;28;20955;-74
2022/07/30 10:12:05;;;;;;;5.27;4.87;;;;;;;-146.72;100.00;64895.28;5063959;28;20531;-74
2022/07/30 10:14:42;;;;;;;4.83;4.33;;;;;;;-146.72;100.00;64895.28;5076293;28;20460;-74
2022/07/30 10:17:12;;;;;;;6.57;5.80;;;;;;;-146.72;100.00;64895.28;5059066;28;20520;-74
2022/07/30 10:19:45;;;;;;;6.30;4.80;;;;;;;-146.72;100.00;64895.28;5086684;28;20452;-73
2022/07/30 10:22:47;;;;;;;5.73;5.20;;;;;;;-146.72;100.00;64895.28;5047917;28;20483;-74
2022/07/30 10:25:21;;;;;;;5.00;4.70;;;;;;;-146.72;100.00;64895.28;5059048;28;20432;-74
2022/07/30 10:28:23;;;;;;;5.70;5.30;;;;;;;-146.72;100.00;64895.28;5072656;28;20476;-74
2022/07/30 10:30:52;;;;;;;4.70;4.40;;;;;;;-146.72;100.00;64895.28;5072627;28;20534;-74
2022/07/30 10:33:25;;;;;;;6.63;6.03;;;;;;;-146.72;100.00;64895.28;5051525;28;20532;-74
2022/07/30 10:36:02;;;;;;;5.80;5.30;;;;;;;-146.72;100.00;64895.28;5067750;28;20443;-75
2022/07/30 10:38:33;;;;;;;5.80;5.40;;;;;;;-146.72;100.00;64895.28;5071172;28;20807;-74
2022/07/30 10:41:10;;;;;;;5.60;5.10;;;;;;;-146.72;100.00;64895.28;5070875;28;20451;-74
2022/07/30 10:43:53;;;;;;;5.17;4.30;;;;;;;-146.72;100.00;64895.28;5075678;28;20453;-74
2022/07/30 10:46:33;;;;;;;5.50;5.10;;;;;;;-146.72;100.00;64895.28;5051602;28;20817;-74
2022/07/30 10:49:14;;;;;;;4.90;4.50;;;;;;;-146.72;100.00;64895.28;5071811;28;20447;-75
2022/07/30 10:51:54;;;;;;;5.87;5.30;;;;;;;-146.72;100.00;64895.28;5078749;28;20413;-74
2022/07/30 10:54:32;;;;;;;5.67;5.27;;;;;;;-146.72;100.00;64895.28;5066389;28;20447;-75
2022/07/30 10:57:15;;;;;;;5.10;4.70;;;;;;;-146.72;100.00;64895.28;5091523;28;20439;-75
2022/07/30 10:59:57;;;;;;;4.60;4.20;;;;;;;-146.72;100.00;64895.28;5063625;28;21064;-74
2022/07/30 11:02:28;;;;;;;5.47;4.93;;;;;;;-146.72;100.00;64895.28;5059018;28;20452;-75
2022/07/30 11:05:19;;;;;;;4.57;4.27;;;;;;;-146.72;100.00;64895.28;5058526;28;20437;-75
2022/07/30 11:08:33;;;;;;;4.80;4.47;;;;;;;-146.72;100.00;64895.28;5077592;28;20423;-75
2022/07/30 11:11:37;;;;;;;4.73;4.00;;;;;;;-146.72;100.00;64895.28;5062329;28;20441;-75
2022/07/30 11:14:46;;;;;;;4.57;4.17;;;;;;;-146.72;100.00;64895.28;5032170;28;20865;-75
2022/07/30 11:17:17;;;;;;;3.97;3.67;;;;;;;-146.72;100.00;64895.28;5067718;28;20531;-75
2022/07/30 11:20:17;;;;;;;5.70;3.53;;;;;;;-146.72;100.00;64895.28;5067906;28;20456;-76
2022/07/30 11:22:45;;;;;;;3.90;3.53;;;;;;;-146.72;100.00;64895.28;5072489;28;20445;-74
2022/07/30 11:25:26;;;;;;;4.30;3.50;;;;;;;-146.72;100.00;64895.28;5080333;28;20457;-75
2022/07/30 11:28:39;;;;;;;3.70;3.50;;;;;;;-146.72;100.00;64895.28;5052278;28;20433;-75
2022/07/30 11:31:26;;;;;;;3.10;2.90;;;;;;;-146.72;100.00;64895.28;5066293;28;20461;-75
2022/07/30 11:34:18;;;;;;;3.20;3.00;;;;;;;-146.72;100.00;64895.28;5076282;28;20443;-75